This is the latest recevied weather packets stored in our database for station/object K4AVM-13. If no packets are shown the sender has not sent any weather packets the latest 10 day(s).
| Time | Temp. | Humidity | Pressure | Rain* | Wind** | Luminosity | Snow |
|---|---|---|---|---|---|---|---|
| 1777672353 | 19.44° C | 38% | 1012.6 hPa | 0 mm | - | 40 W/m² | - |
| 1777672049 | 20° C | 39% | 1012.6 hPa | 0 mm | - | 41 W/m² | - |
| 1777671745 | 20° C | 37% | 1012.7 hPa | 0 mm | - | 69 W/m² | - |
| 1777671442 | 21.11° C | 35% | 1012.7 hPa | 0 mm | - | 238 W/m² | - |
| 1777671137 | 20.56° C | 34% | 1012.6 hPa | 0 mm | - | 253 W/m² | - |
| 1777670828 | 21.11° C | 36% | 1012.7 hPa | 0 mm | - | 266 W/m² | - |
| 1777670525 | 21.11° C | 33% | 1012.8 hPa | 0 mm | - | 280 W/m² | - |
| 1777670221 | 20.56° C | 34% | 1012.8 hPa | 0 mm | - | 296 W/m² | - |
| 1777669919 | 21.11° C | 32% | 1013.1 hPa | 0 mm | - | 309 W/m² | - |
| 1777669610 | 21.11° C | 35% | 1012.9 hPa | 0 mm | - | 321 W/m² | - |
| 1777669306 | 21.11° C | 35% | 1012.8 hPa | 0 mm | - | 334 W/m² | - |
| 1777669002 | 20.56° C | 36% | 1012.8 hPa | 0 mm | - | 349 W/m² | - |
| 1777668700 | 20.56° C | 34% | 1012.8 hPa | 0 mm | - | 364 W/m² | - |
| 1777668397 | 20.56° C | 34% | 1012.8 hPa | 0 mm | - | 374 W/m² | - |
| 1777668092 | 21.11° C | 34% | 1012.8 hPa | 0 mm | - | 390 W/m² | - |
| 1777667789 | 20.56° C | 33% | 1012.9 hPa | 0 mm | - | 405 W/m² | - |
| 1777667487 | 21.11° C | 35% | 1013.1 hPa | 0 mm | - | 417 W/m² | - |
| 1777667184 | 21.11° C | 35% | 1013.3 hPa | 0 mm | - | 431 W/m² | - |
| 1777666881 | 20.56° C | 32% | 1013.2 hPa | 0 mm | - | 444 W/m² | - |
| 1777666578 | 20.56° C | 32% | 1013.4 hPa | 0 mm | - | 459 W/m² | - |
| 1777666275 | 20.56° C | 33% | 1013.5 hPa | 0 mm | - | 472 W/m² | - |
| 1777665971 | 20.56° C | 33% | 1013.8 hPa | 0 mm | - | 484 W/m² | - |
| 1777665669 | 20.56° C | 35% | 1013.8 hPa | 0 mm | - | 420 W/m² | - |
| 1777665367 | 21.67° C | 36% | 1013.8 hPa | 0 mm | - | 507 W/m² | - |
| 1777665061 | 21.11° C | 36% | 1013.9 hPa | 0 mm | - | 526 W/m² | - |
* Rain latest hour (hover to see other rain measurements)
** Current wind speed in m/s (hover to see current wind gust speed)